Bookmark and Share
Track history (hours):
 

Cielo Di Parigi

Last reported at 2014-Apr-18 07:32 UTC. Time now 2014-Apr-18 08:04 UTC.
Position N 51°57' E 004°09'.

Length 183 m; draft 8.9 m.

Type: Ship. MMSI: 636013097.

NotesDate/timePositionNaut miles runAvg speedWind from/ knotsBaromVisibWave heightAir tempDewpointWater temp
2014-Apr-18 07:32N 51°57' E 004°09'0 0.0
2014-Apr-18 06:32N 51°57' E 004°09'0 0.0
2014-Apr-18 05:32N 51°57' E 004°09'0 0.0
2014-Apr-18 04:32N 51°57' E 004°09'0 0.0
2014-Apr-18 03:29N 51°57' E 004°09'0 0.0
2014-Apr-18 02:32N 51°57' E 004°09'0 0.0
2014-Apr-18 01:29N 51°57' E 004°09'0 0.0
2014-Apr-18 00:32N 51°57' E 004°09'0 0.0
2014-Apr-17 23:32N 51°57' E 004°09'0 0.0
2014-Apr-17 22:32N 51°57' E 004°09'0 0.0
2014-Apr-17 21:32N 51°57' E 004°09'0 0.0
2014-Apr-17 20:32N 51°57' E 004°09'0 0.0
2014-Apr-17 19:32N 51°57' E 004°09'0 0.0
2014-Apr-17 18:26N 51°57' E 004°09'0 0.0
2014-Apr-17 17:32N 51°57' E 004°09'0 0.0
2014-Apr-17 16:29N 51°57' E 004°09'3 3.0
2014-Apr-17 15:33N 51°59' E 004°05'2 2.4
2014-Apr-17 14:34N 51°58' E 004°09'9 8.8
2014-Apr-17 13:33N 51°54' E 004°21'0 0.4
2014-Apr-17 12:28N 51°54' E 004°22'0 0.0
2014-Apr-17 11:28N 51°54' E 004°22'0 0.0
2014-Apr-17 10:31N 51°54' E 004°22'0 0.0
2014-Apr-17 09:31N 51°54' E 004°22'0 0.0
2014-Apr-17 08:25N 51°54' E 004°22'0 0.0
2014-Apr-17 07:31N 51°54' E 004°22'0 0.0
2014-Apr-17 06:31N 51°54' E 004°22'0 0.0
2014-Apr-17 05:28N 51°54' E 004°22'0 0.0
2014-Apr-17 04:31N 51°54' E 004°22'0 0.0
2014-Apr-17 03:28N 51°54' E 004°22'0 0.0
2014-Apr-17 02:28N 51°54' E 004°22'0 0.0
2014-Apr-17 01:22N 51°54' E 004°22'0 0.0
2014-Apr-17 00:31N 51°54' E 004°22'0 0.0
2014-Apr-16 23:31N 51°54' E 004°22'0 0.0
2014-Apr-16 22:31N 51°54' E 004°22'0 0.0
2014-Apr-16 21:31N 51°54' E 004°22'0 0.0
2014-Apr-16 20:25N 51°54' E 004°22'0 0.0
2014-Apr-16 19:28N 51°54' E 004°22'0 0.0
2014-Apr-16 18:28N 51°54' E 004°22'0 0.0
2014-Apr-16 17:28N 51°54' E 004°22'0 0.0
2014-Apr-16 16:31N 51°54' E 004°22'0 0.0
2014-Apr-16 15:28N 51°54' E 004°22'0 0.0
2014-Apr-16 14:28N 51°54' E 004°22'0 0.0
2014-Apr-16 13:28N 51°54' E 004°22'0 0.0
2014-Apr-16 12:31N 51°54' E 004°22'0 0.0
2014-Apr-16 11:22N 51°54' E 004°22'0 0.0
2014-Apr-16 10:31N 51°54' E 004°22'0 0.0
2014-Apr-16 09:28N 51°54' E 004°22'0 0.0
2014-Apr-16 08:22N 51°54' E 004°22'0 0.0
2014-Apr-16 07:28N 51°54' E 004°22'0 0.0
2014-Apr-16 06:31N 51°54' E 004°22'0 0.0
2014-Apr-16 05:28N 51°54' E 004°22'0 0.0
2014-Apr-16 04:31N 51°54' E 004°22'0 0.0
2014-Apr-16 03:22N 51°54' E 004°22'0 0.0
2014-Apr-16 02:25N 51°54' E 004°22'0 0.0
2014-Apr-16 01:25N 51°54' E 004°22'0 0.0
2014-Apr-16 00:28N 51°54' E 004°22'0 0.0
2014-Apr-15 23:31N 51°54' E 004°22'1 0.9
2014-Apr-15 22:33N 51°53' E 004°21'0 0.4
2014-Apr-15 21:33N 51°53' E 004°21'0 0.0
2014-Apr-15 20:33N 51°53' E 004°21'0 0.0
2014-Apr-15 19:33N 51°53' E 004°20'0 0.0
2014-Apr-15 18:21N 51°53' E 004°21'0 0.0
2014-Apr-15 17:30N 51°53' E 004°21'0 0.0
2014-Apr-15 16:33N 51°53' E 004°21'0 0.0
2014-Apr-15 15:33N 51°53' E 004°21'0 0.0
2014-Apr-15 14:32N 51°53' E 004°21'0 0.0
2014-Apr-15 12:34N 51°53' E 004°21'0 0.0
2014-Apr-15 11:34N 51°53' E 004°21'0 0.0
2014-Apr-15 10:34N 51°53' E 004°21'0 0.3
2014-Apr-15 09:34N 51°53' E 004°21'1 0.8
2014-Apr-15 08:33N 51°53' E 004°22'0 0.0
2014-Apr-15 07:34N 51°53' E 004°22'0 0.0
2014-Apr-15 06:33N 51°53' E 004°22'0 0.0
2014-Apr-15 05:33N 51°53' E 004°22'0 0.0
2014-Apr-15 03:34N 51°53' E 004°22'0 0.0
2014-Apr-15 02:34N 51°53' E 004°22'0 0.0
2014-Apr-15 01:34N 51°53' E 004°22'0 0.0
2014-Apr-15 00:34N 51°53' E 004°22'0 0.0
2014-Apr-14 23:33N 51°53' E 004°22'0 0.0
2014-Apr-14 22:34N 51°53' E 004°22'0 0.0
2014-Apr-14 21:33N 51°53' E 004°22'0 0.0
2014-Apr-14 20:33N 51°53' E 004°22'0 0.0
2014-Apr-14 19:33N 51°53' E 004°22'0 0.0
2014-Apr-14 18:34N 51°53' E 004°22'0 0.0
2014-Apr-14 17:34N 51°53' E 004°22'0 0.0
2014-Apr-14 16:34N 51°53' E 004°22'0 0.0
2014-Apr-14 15:33N 51°53' E 004°22'0 0.0
2014-Apr-14 14:33N 51°53' E 004°22'0 0.0
2014-Apr-14 13:33N 51°53' E 004°22'0 0.0
2014-Apr-14 11:33N 51°53' E 004°22'0 0.0
2014-Apr-14 10:33N 51°53' E 004°22'0 0.0
2014-Apr-14 09:33N 51°53' E 004°22'0 0.0
2014-Apr-14 08:33N 51°53' E 004°22'0 0.0
2014-Apr-14 07:33N 51°53' E 004°22'0 0.0
2014-Apr-14 06:33N 51°53' E 004°22'0 0.0
2014-Apr-14 05:33N 51°53' E 004°22'0 0.0
2014-Apr-13 22:33N 51°53' E 004°22'0 0.0
2014-Apr-13 21:33N 51°53' E 004°22'0 0.0
2014-Apr-13 20:34N 51°53' E 004°22'0 0.0
2014-Apr-13 19:33N 51°53' E 004°22'1 1.3
2014-Apr-13 18:34N 51°54' E 004°20'7 6.5
2014-Apr-13 17:33N 51°57' E 004°11'9 9.1
2014-Apr-13 16:33N 52°00' E 003°57'9 9.3
2014-Apr-13 15:33N 51°58' E 003°42'4811.9
2014-Apr-13 11:33N 51°41' E 002°30'1212.3
2014-Apr-13 10:33N 51°32' E 002°17'1211.3
2014-Apr-13 09:32N 51°23' E 002°07'10 9.8
2014-Apr-13 08:33N 51°13' E 002°01'10 9.7
2014-Apr-13 07:34N 51°08' E 001°49'9 8.5
2014-Apr-13 06:33N 51°02' E 001°39'8 8.3
2014-Apr-13 05:33N 50°56' E 001°30'21 9.0
2014-Apr-13 03:10N 50°37' E 001°13'810.2
2014-Apr-13 02:24N 50°32' E 001°03'910.2
2014-Apr-13 01:33N 50°28' E 000°51'1110.5
2014-Apr-13 00:29N 50°25' E 000°34'1010.5
2014-Apr-12 23:33N 50°23' E 000°20'3511.4
2014-Apr-12 20:31N 50°14' W 000°33'1313.3
2014-Apr-12 19:33N 50°10' W 000°52'1414.1
2014-Apr-12 18:34N 50°06' W 001°13'2014.2
2014-Apr-12 17:09N 50°01' W 001°43'3412.4
2014-Apr-12 14:22N 49°52' W 002°35'  
2014-Apr-09 09:20N 38°11' W 009°49'910.9
2014-Apr-09 08:33N 38°03' W 009°46'1111.2
2014-Apr-09 07:33N 37°52' W 009°43'1111.3
2014-Apr-09 06:33N 37°41' W 009°39'1111.2
2014-Apr-09 05:33N 37°30' W 009°36'1211.2
2014-Apr-09 04:28N 37°18' W 009°32'1411.2
2014-Apr-09 03:13N 37°05' W 009°28'811.0
2014-Apr-09 02:27N 36°57' W 009°26'1010.9
2014-Apr-09 01:31N 36°48' W 009°20'1311.3
2014-Apr-09 00:21N 36°39' W 009°08'911.2
2014-Apr-08 23:32N 36°36' W 008°57'1111.3
2014-Apr-08 22:33N 36°33' W 008°44'1111.4
2014-Apr-08 21:33N 36°30' W 008°30'2311.4
2014-Apr-08 19:33N 36°23' W 008°03'1611.3
2014-Apr-08 18:08N 36°19' W 007°44'911.1
2014-Apr-08 17:19N 36°17' W 007°33'911.0
2014-Apr-08 16:32N 36°14' W 007°23'7510.8
2014-Apr-08 09:32N 35°58' W 005°52'1111.2
2014-Apr-08 08:33N 35°58' W 005°38'1010.5
2014-Apr-08 07:33N 35°60' W 005°26'  

Dump ship's entire track history

sailing weather and tide predictions

Cielo Di Parigi — A8HE5 — position and weather